الصفحة الرئيسية
METAR-TAF:

METAR-TAF

مطار :

كراكاس, فنزويلا

دائرة عرض: 10-36N, خط طول: 066-59W, ارتفاع: 43 متر

مراقبة الطقس الحالي

تاريخ ووقت الإصدار 28 دقيقة قبل الساعة 07:00UTC
ريح 2 عقدة من الجنوب الشرقي
درجة الحرارة 25°درجة مئوية
الرطوبة 94%
ضغط 1012 hPa
الرؤية 10 كم أو أكثر
غيوم متفرقة على ارتفاع 1600 قدم

METAR: SVMI 210700Z 14002KT 9999 SCT016 25/24 Q1012

زمن: 03:28 (07:28 UTC)

توقعات

تاريخ ووقت الإصدار 3ساعات و 28 دقيقة قبل الساعة 04:00UTC
التوقعات صالحة من21 الساعة 06 UTC إلى 22 الساعة 06 UTC
ريح 1 عقدة من الجنوب الشرقي
الرؤية 10 كم أو أكثر
غيوم متفرقة على ارتفاع 1600 قدم
أصبح
من 21 الساعة 06 UTC إلى 21 الساعة 10 UTC
ريح 5 عقدة من الشرق/الشمال الشرقي
غيوم قليلة على ارتفاع 1600 قدم

TAF: SVMI 210400Z 2106/2206 14001KT 9999 SCT016 TX31/19Z TN23/09Z BECMG 2106/2110 00000KT 07005KT FEW016

أرصاد الطقس والتوقعات من أكثر من 4000 مطار (تقارير الطقس للمطار METAR والتنبؤ بالطقس بالمطارTAF).

المحطات المتاحة هي النقط الصفراء والحمراء على الخريطة.

حرك المؤشر فوق النقطة لمعرفة اسم المحطة.

ثم انقر لمعرفة أرصاد وتوقعات الطقس.

لتغيير الخارطة: اضغط على الأزرار الخضراء مع رمز الصليب الأسود للتكبير. على الزر الأخضر مع شرطة للتصغير، أو على الأسهم الخضراء للخرائط المجاورة.


METAR-TAF: